KMRF/MRF METAR and TAF weather

Enter ICAO airport designator
Station Type Date Time Source
KMRF METAR 2024/06/16 08:56 UTC NOAA

KMRF 160856Z AUTO 03003KT 10SM CLR 21/11 A2999 RMK AO2 SLP073 T02060106 50000


Station Type Date Time Source
KMRF Decoded METAR 2024/06/16 08:56 UTC NOAA

Marfa, TX, United States (KMRF) 30-22N 104-01W 1481M
Jun 16, 2024 - 04:56 AM EDT / 2024.06.16 0856 UTC
Wind: from the NNE (030 degrees) at 3 MPH (3 KT):0
Visibility: 10 mile(s):0
Sky conditions: clear
Temperature: 69.1 F (20.6 C)
Dew Point: 51.1 F (10.6 C)
Relative Humidity: 52%
Pressure (altimeter): 29.99 in. Hg (1015 hPa)
Pressure tendency: 0.00 inches (0.0 hPa) higher than three hours ago
ob: KMRF 160856Z AUTO 03003KT 10SM CLR 21/11 A2999 RMK AO2 SLP073 T02060106 50000
cycle: 9

Station Type Date Time Source
KMRF TAF UTC NOAA

Error!

Example: see airport list